Time;durP1;ratioP1;P1;durP2;ratioP2;P2;SDS_P1;SDS_P2;PMS_P1;PMS_P2;Temp;Humidity;BMP_temperature;BMP_pressure;BME280_temperature;BME280_humidity;BME280_pressure;Samples;Min_cycle;Max_cycle;Signal;HPM_P1;HPM_P2
2022/05/11 00:01:57;;;;;;;;;;;20.00;92.00;;;;;;4331887;33;42423;-76
2022/05/11 00:04:24;;;;;;;;;;;20.00;92.20;;;;;;4345143;33;42959;-76
2022/05/11 00:06:51;;;;;;;;;;;20.00;92.10;;;;;;4344671;33;45092;-76
2022/05/11 00:09:19;;;;;;;;;;;20.00;91.80;;;;;;4331436;33;44287;-76
2022/05/11 00:11:46;;;;;;;;;;;19.90;91.70;;;;;;4344887;33;45010;-76
2022/05/11 00:14:13;;;;;;;;;;;19.90;91.20;;;;;;4331411;33;45249;-76
2022/05/11 00:16:43;;;;;;;;;;;19.90;91.40;;;;;;4331591;33;43470;-76
2022/05/11 00:19:13;;;;;;;;;;;19.90;91.20;;;;;;4331733;33;43555;-76
2022/05/11 00:21:40;;;;;;;;;;;19.80;91.10;;;;;;4331867;33;42878;-76
2022/05/11 00:24:07;;;;;;;;;;;19.80;91.00;;;;;;4344783;33;42491;-76
2022/05/11 00:26:35;;;;;;;;;;;19.80;91.20;;;;;;4331784;33;43723;-76
2022/05/11 00:29:04;;;;;;;;;;;19.80;90.80;;;;;;4331345;33;42082;-76
2022/05/11 00:31:31;;;;;;;;;;;19.70;91.10;;;;;;4345097;33;43061;-76
2022/05/11 00:33:59;;;;;;;;;;;19.70;91.30;;;;;;4345060;33;42941;-77
2022/05/11 00:36:26;;;;;;;;;;;19.70;91.50;;;;;;4331291;33;45396;-77
2022/05/11 00:38:53;;;;;;;;;;;19.70;91.50;;;;;;4344597;33;42829;-76
2022/05/11 00:41:23;;;;;;;;;;;19.60;91.00;;;;;;4331361;33;42496;-76
2022/05/11 00:43:57;;;;;;;;;;;19.60;91.10;;;;;;4334046;33;44093;-77
2022/05/11 00:46:36;;;;;;;;;;;19.50;91.10;;;;;;4348016;33;42980;-76
2022/05/11 00:51:56;;;;;;;;;;;19.50;91.30;;;;;;4347360;33;42881;-76
2022/05/11 00:54:28;;;;;;;;;;;19.50;91.30;;;;;;4334619;33;44299;-76
2022/05/11 00:57:01;;;;;;;;;;;19.50;91.00;;;;;;4347764;33;45159;-76
2022/05/11 00:59:33;;;;;;;;;;;19.50;91.10;;;;;;4334025;33;43326;-76
2022/05/11 01:02:04;;;;;;;;;;;19.50;90.90;;;;;;4347004;33;42566;-76
2022/05/11 01:04:33;;;;;;;;;;;19.50;90.70;;;;;;4334085;33;42782;-76
2022/05/11 01:07:00;;;;;;;;;;;19.40;90.80;;;;;;4347445;33;43696;-76
2022/05/11 01:09:28;;;;;;;;;;;19.40;91.00;;;;;;4347532;33;44174;-77
2022/05/11 01:11:57;;;;;;;;;;;19.40;90.70;;;;;;4347593;33;43878;-76
2022/05/11 01:14:27;;;;;;;;;;;19.40;90.90;;;;;;4347022;33;42431;-76
2022/05/11 01:16:55;;;;;;;;;;;19.40;91.80;;;;;;4347307;33;43278;-76
2022/05/11 01:19:33;;;;;;;;;;;19.40;91.00;;;;;;4334253;33;43925;-76
2022/05/11 01:22:03;;;;;;;;;;;19.40;91.00;;;;;;4346915;33;42678;-76
2022/05/11 01:24:36;;;;;;;;;;;19.40;91.10;;;;;;4346817;33;43283;-76
2022/05/11 01:27:22;;;;;;;;;;;19.40;91.10;;;;;;4334206;33;43692;-76
2022/05/11 01:29:49;;;;;;;;;;;19.40;91.00;;;;;;4347082;33;43032;-76
2022/05/11 01:32:17;;;;;;;;;;;19.40;91.20;;;;;;4333910;33;43857;-76
2022/05/11 01:34:45;;;;;;;;;;;19.40;91.10;;;;;;4346567;33;44698;-77
2022/05/11 01:37:12;;;;;;;;;;;19.40;91.20;;;;;;4334109;33;43882;-77
2022/05/11 01:39:40;;;;;;;;;;;19.40;91.40;;;;;;4333341;33;45678;-76
2022/05/11 01:42:07;;;;;;;;;;;19.40;91.40;;;;;;4347609;33;20374;-77
2022/05/11 01:44:34;;;;;;;;;;;19.40;91.30;;;;;;4333522;33;45223;-76
2022/05/11 01:47:01;;;;;;;;;;;19.40;91.30;;;;;;4333693;33;42844;-76
2022/05/11 01:49:29;;;;;;;;;;;19.40;91.30;;;;;;4333848;33;44212;-76
2022/05/11 01:51:58;;;;;;;;;;;19.40;90.90;;;;;;4333334;33;43580;-76
2022/05/11 01:54:26;;;;;;;;;;;19.30;90.50;;;;;;4333247;33;43065;-76
2022/05/11 01:56:53;;;;;;;;;;;19.30;90.70;;;;;;4346497;33;43320;-76
2022/05/11 01:59:20;;;;;;;;;;;19.20;90.60;;;;;;4346938;33;44868;-77
2022/05/11 02:01:47;;;;;;;;;;;19.20;90.50;;;;;;4346470;33;44176;-76
2022/05/11 02:09:45;;;;;;;;;;;19.10;90.60;;;;;;4346791;33;43335;-76
2022/05/11 02:12:15;;;;;;;;;;;19.10;90.50;;;;;;4347124;33;20418;-77
2022/05/11 02:14:42;;;;;;;;;;;19.10;91.10;;;;;;4346132;33;43809;-76
2022/05/11 02:17:09;;;;;;;;;;;19.10;90.60;;;;;;4346407;33;43740;-75
2022/05/11 02:19:36;;;;;;;;;;;19.10;90.60;;;;;;4346305;33;42947;-76
2022/05/11 02:22:03;;;;;;;;;;;19.10;90.60;;;;;;4346062;33;42931;-76
2022/05/11 02:24:31;;;;;;;;;;;19.00;90.90;;;;;;4346037;33;43481;-77
2022/05/11 02:27:02;;;;;;;;;;;19.10;91.10;;;;;;4333228;33;44371;-76
2022/05/11 02:29:30;;;;;;;;;;;19.10;91.10;;;;;;4333197;33;43428;-76
2022/05/11 02:31:57;;;;;;;;;;;19.10;91.00;;;;;;4333114;33;43893;-76
2022/05/11 02:37:18;;;;;;;;;;;19.00;90.80;;;;;;4328623;33;45377;-77
2022/05/11 02:39:45;;;;;;;;;;;19.00;90.90;;;;;;4346244;33;44027;-76
2022/05/11 02:42:12;;;;;;;;;;;19.00;91.10;;;;;;4332989;33;42958;-76
2022/05/11 02:44:39;;;;;;;;;;;19.00;91.00;;;;;;4345859;33;42496;-76
2022/05/11 02:47:06;;;;;;;;;;;19.00;91.00;;;;;;4345939;33;44256;-76
2022/05/11 02:49:33;;;;;;;;;;;19.00;90.90;;;;;;4345576;33;45901;-76
2022/05/11 02:52:03;;;;;;;;;;;19.00;91.10;;;;;;4332835;33;43992;-77
2022/05/11 02:54:33;;;;;;;;;;;19.00;91.20;;;;;;4332826;33;45981;-76
2022/05/11 02:57:00;;;;;;;;;;;19.00;91.30;;;;;;4346063;33;44075;-76
2022/05/11 02:59:28;;;;;;;;;;;19.00;91.30;;;;;;4345780;33;42832;-76
2022/05/11 03:01:56;;;;;;;;;;;19.00;91.40;;;;;;4332161;33;43862;-76
2022/05/11 03:04:24;;;;;;;;;;;19.00;91.20;;;;;;4345481;33;43216;-76
2022/05/11 03:06:51;;;;;;;;;;;19.00;91.30;;;;;;4332101;33;42129;-76
2022/05/11 03:09:18;;;;;;;;;;;18.90;91.30;;;;;;4345343;33;43475;-76
2022/05/11 03:11:45;;;;;;;;;;;18.90;90.90;;;;;;4345372;33;43479;-76
2022/05/11 03:14:13;;;;;;;;;;;18.90;91.10;;;;;;4332307;33;42391;-77
2022/05/11 03:16:40;;;;;;;;;;;18.90;91.20;;;;;;4345398;33;43059;-77
2022/05/11 03:19:07;;;;;;;;;;;18.90;91.30;;;;;;4332401;33;43953;-77
2022/05/11 03:21:34;;;;;;;;;;;18.90;91.10;;;;;;4345712;33;43019;-76
2022/05/11 03:24:01;;;;;;;;;;;18.80;91.40;;;;;;4345187;33;43863;-76
2022/05/11 03:26:32;;;;;;;;;;;18.90;91.20;;;;;;4345510;33;43490;-76
2022/05/11 03:28:59;;;;;;;;;;;18.80;91.30;;;;;;4345210;33;42681;-76
2022/05/11 03:31:27;;;;;;;;;;;18.80;91.20;;;;;;4345113;33;43076;-76
2022/05/11 03:36:40;;;;;;;;;;;18.80;91.20;;;;;;4345039;33;43494;-77
2022/05/11 03:39:07;;;;;;;;;;;18.80;91.00;;;;;;4331999;33;42867;-76
2022/05/11 03:41:34;;;;;;;;;;;18.70;91.20;;;;;;4332295;33;43237;-76
2022/05/11 03:44:05;;;;;;;;;;;18.70;91.40;;;;;;4332937;33;20010;-76
2022/05/11 03:46:32;;;;;;;;;;;18.70;91.20;;;;;;4332173;33;45572;-76
2022/05/11 03:49:00;;;;;;;;;;;18.70;91.30;;;;;;4344906;33;42633;-76
2022/05/11 03:51:27;;;;;;;;;;;18.70;91.20;;;;;;4332207;33;43090;-76
2022/05/11 03:53:55;;;;;;;;;;;18.70;91.20;;;;;;4332262;33;45895;-76
2022/05/11 03:56:22;;;;;;;;;;;18.70;91.20;;;;;;4345252;33;43101;-76
2022/05/11 03:58:49;;;;;;;;;;;18.60;91.30;;;;;;4344826;33;43909;-76
2022/05/11 04:01:17;;;;;;;;;;;18.60;91.30;;;;;;4344747;33;45841;-76
2022/05/11 04:03:46;;;;;;;;;;;18.60;91.10;;;;;;4331741;33;44221;-76
2022/05/11 04:06:13;;;;;;;;;;;18.60;91.30;;;;;;4331957;33;43732;-76
2022/05/11 04:08:43;;;;;;;;;;;18.60;91.30;;;;;;4332042;33;44360;-76
2022/05/11 04:11:11;;;;;;;;;;;18.60;91.30;;;;;;4345029;33;43697;-76
2022/05/11 04:13:40;;;;;;;;;;;18.50;91.10;;;;;;4331850;33;43854;-76
2022/05/11 04:16:07;;;;;;;;;;;18.50;90.60;;;;;;4331605;33;42833;-76
2022/05/11 04:18:35;;;;;;;;;;;18.50;91.00;;;;;;4334710;33;44202;-76
2022/05/11 04:21:02;;;;;;;;;;;18.40;90.90;;;;;;4348017;33;43700;-76
2022/05/11 04:23:32;;;;;;;;;;;18.40;90.80;;;;;;4347744;33;43021;-76
2022/05/11 04:25:59;;;;;;;;;;;18.40;91.00;;;;;;4334792;33;44233;-77
2022/05/11 04:28:26;;;;;;;;;;;18.30;90.90;;;;;;4348243;33;42765;-76
2022/05/11 04:31:01;;;;;;;;;;;18.30;91.20;;;;;;4334509;33;44278;-76
2022/05/11 04:33:28;;;;;;;;;;;18.30;91.40;;;;;;4334322;33;43792;-76
2022/05/11 04:35:55;;;;;;;;;;;18.40;91.40;;;;;;4347776;33;42154;-76
2022/05/11 04:38:22;;;;;;;;;;;18.40;91.50;;;;;;4334589;33;44091;-76
2022/05/11 04:40:53;;;;;;;;;;;18.40;91.60;;;;;;4347539;33;43385;-76
2022/05/11 04:43:20;;;;;;;;;;;18.40;91.40;;;;;;4348099;33;42927;-76
2022/05/11 04:45:47;;;;;;;;;;;18.30;91.40;;;;;;4334430;33;43851;-76
2022/05/11 04:48:17;;;;;;;;;;;18.30;91.40;;;;;;4334210;33;42478;-76
2022/05/11 04:50:45;;;;;;;;;;;18.30;91.30;;;;;;4347332;33;43350;-76
2022/05/11 04:53:14;;;;;;;;;;;18.30;91.20;;;;;;4334394;33;43547;-77
2022/05/11 04:55:41;;;;;;;;;;;18.30;91.20;;;;;;4347381;33;43273;-76
2022/05/11 04:58:14;;;;;;;;;;;18.30;91.00;;;;;;4335183;33;45756;-76
2022/05/11 05:00:41;;;;;;;;;;;18.20;91.30;;;;;;4334156;33;42489;-76
2022/05/11 05:03:09;;;;;;;;;;;18.20;91.30;;;;;;4347316;33;43286;-75
2022/05/11 05:05:37;;;;;;;;;;;18.20;91.60;;;;;;4347458;33;44485;-76
2022/05/11 05:08:07;;;;;;;;;;;18.20;91.70;;;;;;4334267;33;43702;-76
2022/05/11 05:10:38;;;;;;;;;;;18.20;91.70;;;;;;4347625;33;45719;-76
2022/05/11 05:13:07;;;;;;;;;;;18.20;91.80;;;;;;4347574;33;41898;-76
2022/05/11 05:15:38;;;;;;;;;;;18.20;91.80;;;;;;4334714;33;43844;-75
2022/05/11 05:18:06;;;;;;;;;;;18.20;91.70;;;;;;4347139;33;42938;-76
2022/05/11 05:20:33;;;;;;;;;;;18.20;91.70;;;;;;4334001;33;43807;-76
2022/05/11 05:23:03;;;;;;;;;;;18.10;91.90;;;;;;4346927;33;42704;-76
2022/05/11 05:25:33;;;;;;;;;;;18.10;92.20;;;;;;4347000;33;42905;-76
2022/05/11 05:31:08;;;;;;;;;;;18.20;92.20;;;;;;4347191;33;42945;-75
2022/05/11 05:33:36;;;;;;;;;;;18.20;92.40;;;;;;4347309;33;44330;-75
2022/05/11 05:36:06;;;;;;;;;;;18.10;92.60;;;;;;4346895;33;44291;-75
2022/05/11 05:38:36;;;;;;;;;;;18.20;92.80;;;;;;4333797;33;43789;-75
2022/05/11 05:41:04;;;;;;;;;;;18.20;93.00;;;;;;4346934;33;43037;-76
2022/05/11 05:43:31;;;;;;;;;;;18.20;93.20;;;;;;4347052;33;42821;-76
2022/05/11 05:46:01;;;;;;;;;;;18.20;93.30;;;;;;4333260;33;42041;-76
2022/05/11 05:48:28;;;;;;;;;;;18.30;93.40;;;;;;4333834;32;44333;-77
2022/05/11 05:51:02;;;;;;;;;;;18.20;93.40;;;;;;4348798;32;43801;-75
2022/05/11 05:53:33;;;;;;;;;;;18.30;93.50;;;;;;4361722;32;42596;-76
2022/05/11 05:56:02;;;;;;;;;;;18.30;93.60;;;;;;4361766;32;43710;-75
2022/05/11 05:58:29;;;;;;;;;;;18.30;93.70;;;;;;4347924;32;44107;-75
2022/05/11 06:01:00;;;;;;;;;;;18.30;93.80;;;;;;4361174;32;42623;-75
2022/05/11 06:03:31;;;;;;;;;;;18.30;93.90;;;;;;4361058;32;43539;-75
2022/05/11 06:06:05;;;;;;;;;;;18.30;93.90;;;;;;4361609;32;43352;-75
2022/05/11 06:08:32;;;;;;;;;;;18.30;94.20;;;;;;4361013;32;43443;-76
2022/05/11 06:11:07;;;;;;;;;;;18.30;93.80;;;;;;4360918;32;44167;-76
2022/05/11 06:13:38;;;;;;;;;;;18.30;93.80;;;;;;4361903;32;43865;-76
2022/05/11 06:16:12;;;;;;;;;;;18.30;93.70;;;;;;4362505;32;20043;-76
2022/05/11 06:18:43;;;;;;;;;;;18.30;93.80;;;;;;4348281;32;43078;-76
2022/05/11 06:21:11;;;;;;;;;;;18.30;93.80;;;;;;4361334;32;43646;-76
2022/05/11 06:23:41;;;;;;;;;;;18.30;93.90;;;;;;4347973;32;43652;-75
2022/05/11 06:26:09;;;;;;;;;;;18.30;93.80;;;;;;4347613;32;42582;-76
2022/05/11 06:28:40;;;;;;;;;;;18.30;93.80;;;;;;4347849;32;44212;-75
2022/05/11 06:31:19;;;;;;;;;;;18.40;93.90;;;;;;4349127;32;42907;-75
2022/05/11 06:33:49;;;;;;;;;;;18.40;94.00;;;;;;4361171;32;43773;-76
2022/05/11 06:36:20;;;;;;;;;;;18.30;94.00;;;;;;4347468;32;43135;-76
2022/05/11 06:38:47;;;;;;;;;;;18.40;94.00;;;;;;4360987;32;43354;-76
2022/05/11 06:41:16;;;;;;;;;;;18.40;94.10;;;;;;4347100;32;42887;-75
2022/05/11 06:43:44;;;;;;;;;;;18.40;94.00;;;;;;4347222;32;42461;-75
2022/05/11 06:46:13;;;;;;;;;;;18.40;94.00;;;;;;4348408;32;20039;-75
2022/05/11 06:48:45;;;;;;;;;;;18.40;94.00;;;;;;4347214;32;43708;-76
2022/05/11 06:51:16;;;;;;;;;;;18.40;93.80;;;;;;4361088;32;44202;-76
2022/05/11 06:59:32;;;;;;;;;;;18.40;94.00;;;;;;4360546;32;42476;-75
2022/05/11 07:02:09;;;;;;;;;;;18.40;94.00;;;;;;4346612;32;43337;-76
2022/05/11 07:04:37;;;;;;;;;;;18.40;93.80;;;;;;4347664;32;44073;-78
2022/05/11 07:07:13;;;;;;;;;;;18.40;93.80;;;;;;4347369;32;40130;-76
2022/05/11 07:09:51;;;;;;;;;;;18.40;93.70;;;;;;4360772;32;44089;-75
2022/05/11 07:12:46;;;;;;;;;;;18.40;93.90;;;;;;4360478;32;43768;-75
2022/05/11 07:15:19;;;;;;;;;;;18.40;93.90;;;;;;4360509;32;43310;-76
2022/05/11 07:17:56;;;;;;;;;;;18.50;94.00;;;;;;4360920;32;21904;-76
2022/05/11 07:20:34;;;;;;;;;;;18.50;94.00;;;;;;4347542;32;43043;-75
2022/05/11 07:23:07;;;;;;;;;;;18.50;94.10;;;;;;4347314;32;43492;-78
2022/05/11 07:25:44;;;;;;;;;;;18.50;94.30;;;;;;4360453;32;43190;-76
2022/05/11 07:28:21;;;;;;;;;;;18.50;94.20;;;;;;4347254;32;43686;-75
2022/05/11 07:30:59;;;;;;;;;;;18.50;94.10;;;;;;4360816;32;43726;-76
2022/05/11 07:33:34;;;;;;;;;;;18.50;94.20;;;;;;4360502;32;45089;-77
2022/05/11 07:36:13;;;;;;;;;;;18.50;94.20;;;;;;4346799;32;43025;-75
2022/05/11 07:38:40;;;;;;;;;;;18.50;94.20;;;;;;4359972;32;42855;-75
2022/05/11 07:41:13;;;;;;;;;;;18.50;94.30;;;;;;4360325;32;43462;-75
2022/05/11 07:43:49;;;;;;;;;;;18.50;94.10;;;;;;4346413;32;44195;-75
2022/05/11 07:46:26;;;;;;;;;;;18.50;94.00;;;;;;4360044;32;44975;-76
2022/05/11 07:49:05;;;;;;;;;;;18.50;94.00;;;;;;4347923;32;20039;-76
2022/05/11 07:51:40;;;;;;;;;;;18.50;93.90;;;;;;4346588;32;43935;-75
2022/05/11 07:54:16;;;;;;;;;;;18.50;94.00;;;;;;4360259;32;43963;-76
2022/05/11 07:59:56;;;;;;;;;;;18.50;93.70;;;;;;4359652;32;43695;-76
2022/05/11 08:02:26;;;;;;;;;;;18.50;93.80;;;;;;4359453;32;45770;-74
2022/05/11 08:04:58;;;;;;;;;;;18.60;93.70;;;;;;4360248;32;43739;-76
2022/05/11 08:07:39;;;;;;;;;;;18.50;93.70;;;;;;4359594;33;42980;-75
2022/05/11 08:10:31;;;;;;;;;;;18.50;93.70;;;;;;4359706;33;43638;-76
2022/05/11 08:13:10;;;;;;;;;;;18.50;93.80;;;;;;4359729;33;43508;-75
2022/05/11 08:15:43;;;;;;;;;;;18.60;93.70;;;;;;4346303;33;42521;-76
2022/05/11 08:18:18;;;;;;;;;;;18.50;93.80;;;;;;4346739;33;43193;-75
2022/05/11 08:20:57;;;;;;;;;;;18.60;93.90;;;;;;4347583;33;20452;-75
2022/05/11 08:23:36;;;;;;;;;;;18.60;93.80;;;;;;4346099;33;45062;-75
2022/05/11 08:26:14;;;;;;;;;;;18.60;93.70;;;;;;4346617;33;44803;-75
2022/05/11 08:28:47;;;;;;;;;;;18.60;93.80;;;;;;4346236;33;43027;-75
2022/05/11 08:34:00;;;;;;;;;;;18.60;94.00;;;;;;4359997;33;43626;-75
2022/05/11 08:36:45;;;;;;;;;;;18.60;93.90;;;;;;4347788;33;43196;-75
2022/05/11 08:39:12;;;;;;;;;;;18.60;94.20;;;;;;4346440;33;46207;-74
2022/05/11 08:41:59;;;;;;;;;;;18.60;94.20;;;;;;4346879;33;42896;-74
2022/05/11 08:44:43;;;;;;;;;;;18.60;94.20;;;;;;4346249;33;43691;-75
2022/05/11 08:47:34;;;;;;;;;;;18.60;94.20;;;;;;4359724;33;44696;-75
2022/05/11 08:50:11;;;;;;;;;;;18.60;94.20;;;;;;4345959;33;43743;-75
2022/05/11 08:52:54;;;;;;;;;;;18.60;94.20;;;;;;4346917;33;43073;-75
2022/05/11 08:55:40;;;;;;;;;;;18.60;94.30;;;;;;4359888;33;43058;-76
2022/05/11 08:58:33;;;;;;;;;;;18.60;94.30;;;;;;4346088;33;46288;-75
2022/05/11 09:01:08;;;;;;;;;;;18.70;94.40;;;;;;4359529;33;45692;-75
2022/05/11 09:03:37;;;;;;;;;;;18.70;94.40;;;;;;4347447;32;44202;-75
2022/05/11 09:06:27;;;;;;;;;;;18.70;94.40;;;;;;4361840;32;42744;-75
2022/05/11 09:09:01;;;;;;;;;;;18.70;94.30;;;;;;4348879;32;43737;-75
2022/05/11 09:11:37;;;;;;;;;;;18.70;94.40;;;;;;4348710;32;44250;-74
2022/05/11 09:14:16;;;;;;;;;;;18.70;94.50;;;;;;4348920;32;43583;-75
2022/05/11 09:16:52;;;;;;;;;;;18.70;94.60;;;;;;4362337;32;43258;-75
2022/05/11 09:19:27;;;;;;;;;;;18.70;94.50;;;;;;4349236;32;43594;-75
2022/05/11 09:22:07;;;;;;;;;;;18.70;94.60;;;;;;4349512;32;20020;-76
2022/05/11 09:24:44;;;;;;;;;;;18.70;94.50;;;;;;4362369;32;43143;-75
2022/05/11 09:27:21;;;;;;;;;;;18.70;94.70;;;;;;4348787;32;45045;-75
2022/05/11 09:30:01;;;;;;;;;;;18.70;94.60;;;;;;4349224;32;43790;-75
2022/05/11 09:32:37;;;;;;;;;;;18.70;94.70;;;;;;4362064;32;42812;-75
2022/05/11 09:35:31;;;;;;;;;;;18.70;94.70;;;;;;4348692;32;42516;-74
2022/05/11 09:38:05;;;;;;;;;;;18.80;94.90;;;;;;4348081;32;45715;-75
2022/05/11 09:40:55;;;;;;;;;;;18.80;94.80;;;;;;4348433;32;44094;-74
2022/05/11 09:43:44;;;;;;;;;;;18.80;94.90;;;;;;4361908;32;43729;-74
2022/05/11 09:46:20;;;;;;;;;;;18.80;94.90;;;;;;4361699;32;45198;-75
2022/05/11 09:49:05;;;;;;;;;;;18.80;95.00;;;;;;4362250;32;43052;-75
2022/05/11 09:51:35;;;;;;;;;;;18.80;95.00;;;;;;4361815;32;43109;-75
2022/05/11 09:54:19;;;;;;;;;;;18.80;95.10;;;;;;4348457;32;44749;-75
2022/05/11 09:57:20;;;;;;;;;;;18.80;95.10;;;;;;4348585;32;44103;-74
2022/05/11 09:59:57;;;;;;;;;;;18.80;95.20;;;;;;4347309;32;43693;-75
2022/05/11 10:02:41;;;;;;;;;;;18.90;95.10;;;;;;4348033;32;43170;-75
2022/05/11 10:05:18;;;;;;;;;;;18.90;95.20;;;;;;4348265;32;44261;-74
2022/05/11 10:07:59;;;;;;;;;;;18.90;95.30;;;;;;4348179;32;43740;-75
2022/05/11 10:10:32;;;;;;;;;;;18.90;95.40;;;;;;4348235;32;43603;-75
2022/05/11 10:13:11;;;;;;;;;;;18.90;95.40;;;;;;4348115;32;43237;-74
2022/05/11 10:24:30;;;;;;;;;;;19.00;95.60;;;;;;4361367;32;45684;-74
2022/05/11 10:26:58;;;;;;;;;;;19.10;95.70;;;;;;4360802;32;44075;-78
2022/05/11 10:30:03;;;;;;;;;;;19.10;95.80;;;;;;4360958;32;43239;-76
2022/05/11 10:32:41;;;;;;;;;;;19.10;95.70;;;;;;4324894;32;44876;-75
2022/05/11 10:35:17;;;;;;;;;;;19.10;95.60;;;;;;4348011;32;43244;-75
2022/05/11 10:37:44;;;;;;;;;;;19.20;95.60;;;;;;4348020;32;41696;-76
2022/05/11 10:40:33;;;;;;;;;;;19.20;95.70;;;;;;4347362;32;43638;-76
2022/05/11 10:43:19;;;;;;;;;;;19.20;95.80;;;;;;4348051;32;43735;-78
2022/05/11 10:46:12;;;;;;;;;;;19.30;95.60;;;;;;4349881;32;46457;-76
2022/05/11 10:49:05;;;;;;;;;;;19.30;95.70;;;;;;4347328;32;42819;-77
2022/05/11 10:51:44;;;;;;;;;;;19.30;95.40;;;;;;4347536;32;43774;-76
2022/05/11 10:54:32;;;;;;;;;;;19.40;95.40;;;;;;4360879;32;42153;-76
2022/05/11 10:57:23;;;;;;;;;;;19.40;95.20;;;;;;4347001;32;42083;-76
2022/05/11 11:00:10;;;;;;;;;;;19.50;95.30;;;;;;4347431;32;43635;-79
2022/05/11 11:02:56;;;;;;;;;;;19.50;95.30;;;;;;4360590;32;45977;-76
2022/05/11 11:05:34;;;;;;;;;;;19.50;95.20;;;;;;4346923;32;43940;-77
2022/05/11 11:08:12;;;;;;;;;;;19.60;95.10;;;;;;4360706;32;46037;-77
2022/05/11 11:10:52;;;;;;;;;;;19.60;94.80;;;;;;4360264;32;44185;-78
2022/05/11 11:13:51;;;;;;;;;;;19.60;94.90;;;;;;4347417;32;45717;-77
2022/05/11 11:16:30;;;;;;;;;;;19.60;95.00;;;;;;4360180;32;44223;-78
2022/05/11 11:19:04;;;;;;;;;;;19.70;95.00;;;;;;4360350;32;45384;-80
2022/05/11 11:21:40;;;;;;;;;;;19.70;94.80;;;;;;4360710;32;45893;-78
2022/05/11 11:24:17;;;;;;;;;;;19.70;94.50;;;;;;4360499;32;42997;-78
2022/05/11 11:26:53;;;;;;;;;;;19.80;94.40;;;;;;4347115;32;20001;-76
2022/05/11 11:29:56;;;;;;;;;;;19.80;94.50;;;;;;4360979;32;25442;-77
2022/05/11 11:32:27;;;;;;;;;;;19.80;94.70;;;;;;4359919;32;44125;-76
2022/05/11 11:35:36;;;;;;;;;;;19.90;94.30;;;;;;4346995;32;44785;-78
2022/05/11 11:38:09;;;;;;;;;;;20.00;94.50;;;;;;4272640;33;43529;-78
2022/05/11 11:41:00;;;;;;;;;;;20.00;94.40;;;;;;4352206;32;46120;-79
2022/05/11 11:43:46;;;;;;;;;;;20.00;94.40;;;;;;4359909;32;45837;-79
2022/05/11 11:46:29;;;;;;;;;;;20.10;94.20;;;;;;4346741;32;44342;-77
2022/05/11 11:49:10;;;;;;;;;;;20.10;93.80;;;;;;4346439;32;44335;-78
2022/05/11 11:52:00;;;;;;;;;;;20.10;93.40;;;;;;4346857;32;43034;-78
2022/05/11 11:54:34;;;;;;;;;;;20.10;93.00;;;;;;4359920;32;42634;-76
2022/05/11 11:57:26;;;;;;;;;;;20.20;92.40;;;;;;4347796;32;20062;-77
2022/05/11 12:00:05;;;;;;;;;;;20.30;92.30;;;;;;4347058;32;43462;-77
2022/05/11 12:02:48;;;;;;;;;;;20.30;91.90;;;;;;4343823;33;42890;-76
2022/05/11 12:05:37;;;;;;;;;;;20.30;92.00;;;;;;4345453;33;43908;-78
2022/05/11 12:16:46;;;;;;;;;;;20.50;91.90;;;;;;4344688;33;44953;-77
2022/05/11 12:19:21;;;;;;;;;;;20.50;91.60;;;;;;4344921;33;44203;-78
2022/05/11 12:22:02;;;;;;;;;;;20.60;91.40;;;;;;4344019;33;44543;-77
2022/05/11 12:24:35;;;;;;;;;;;20.60;91.50;;;;;;4345158;33;42918;-78
2022/05/11 12:27:12;;;;;;;;;;;20.60;91.50;;;;;;4345078;33;44287;-79
2022/05/11 12:29:58;;;;;;;;;;;20.70;91.30;;;;;;4345307;33;44854;-78
2022/05/11 12:32:30;;;;;;;;;;;20.70;91.10;;;;;;4343995;33;42917;-78
2022/05/11 12:35:22;;;;;;;;;;;20.80;90.90;;;;;;4343997;33;45146;-78
2022/05/11 12:38:14;;;;;;;;;;;20.80;91.10;;;;;;4343916;33;43891;-77
2022/05/11 12:40:58;;;;;;;;;;;20.80;90.80;;;;;;4346476;33;44190;-77
2022/05/11 12:43:34;;;;;;;;;;;20.90;90.70;;;;;;4346830;33;44111;-79
2022/05/11 12:46:07;;;;;;;;;;;20.90;90.60;;;;;;4346466;33;43024;-77
2022/05/11 12:48:41;;;;;;;;;;;20.90;91.00;;;;;;4346693;33;43252;-79
2022/05/11 12:51:16;;;;;;;;;;;21.00;91.00;;;;;;4347057;33;43605;-78
2022/05/11 12:53:54;;;;;;;;;;;21.00;90.60;;;;;;4346331;33;43450;-80
2022/05/11 12:56:22;;;;;;;;;;;21.00;90.30;;;;;;4346857;33;44234;-79
2022/05/11 12:58:58;;;;;;;;;;;21.10;89.70;;;;;;4347405;33;43601;-78
2022/05/11 13:01:31;;;;;;;;;;;21.10;90.10;;;;;;4348721;32;19998;-78
2022/05/11 13:04:17;;;;;;;;;;;21.10;89.30;;;;;;4362542;32;43979;-79
2022/05/11 13:07:12;;;;;;;;;;;21.20;89.90;;;;;;4348899;32;43849;-78
2022/05/11 13:09:51;;;;;;;;;;;21.20;89.30;;;;;;4361851;32;42763;-78
2022/05/11 13:12:18;;;;;;;;;;;21.30;89.20;;;;;;4362534;32;43975;-78
2022/05/11 13:14:54;;;;;;;;;;;21.30;88.80;;;;;;4362357;32;44014;-79
2022/05/11 13:17:35;;;;;;;;;;;21.40;88.30;;;;;;4349503;32;43552;-78
2022/05/11 13:20:23;;;;;;;;;;;21.40;88.20;;;;;;4349127;32;43889;-77
2022/05/11 13:22:57;;;;;;;;;;;21.40;87.50;;;;;;4349337;32;44183;-79
2022/05/11 13:25:40;;;;;;;;;;;21.40;88.00;;;;;;4362431;32;44215;-78
2022/05/11 13:28:18;;;;;;;;;;;21.50;89.20;;;;;;4361743;32;44322;-78
2022/05/11 13:30:54;;;;;;;;;;;21.50;88.30;;;;;;4348744;32;45131;-79
2022/05/11 13:33:31;;;;;;;;;;;21.50;89.20;;;;;;4363053;32;20015;-80
2022/05/11 13:36:16;;;;;;;;;;;21.60;88.80;;;;;;4362051;32;43885;-79
2022/05/11 13:38:56;;;;;;;;;;;21.60;88.70;;;;;;4362216;32;44231;-78
2022/05/11 13:41:33;;;;;;;;;;;21.60;88.10;;;;;;4362142;32;44509;-77
2022/05/11 13:44:26;;;;;;;;;;;21.60;89.80;;;;;;4348748;32;44843;-78
2022/05/11 13:49:44;;;;;;;;;;;21.70;89.40;;;;;;4361171;32;45664;-77
2022/05/11 13:52:32;;;;;;;;;;;21.70;88.70;;;;;;4349190;32;44284;-78
2022/05/11 13:55:06;;;;;;;;;;;21.80;89.00;;;;;;4361354;32;42777;-77
2022/05/11 13:57:42;;;;;;;;;;;21.80;88.70;;;;;;4361705;32;45573;-78
2022/05/11 14:00:15;;;;;;;;;;;21.80;89.50;;;;;;4348402;32;44994;-76
2022/05/11 14:02:48;;;;;;;;;;;21.80;89.90;;;;;;4348057;32;44207;-77
2022/05/11 14:05:16;;;;;;;;;;;21.80;90.00;;;;;;4348469;32;42537;-76
2022/05/11 14:07:43;;;;;;;;;;;21.90;89.50;;;;;;4361583;32;45851;-76
2022/05/11 14:10:14;;;;;;;;;;;21.90;89.80;;;;;;4348135;32;45756;-76
2022/05/11 14:12:47;;;;;;;;;;;21.90;89.30;;;;;;4347664;32;44873;-77
2022/05/11 14:15:20;;;;;;;;;;;22.00;90.10;;;;;;4348304;32;43775;-76
2022/05/11 14:17:51;;;;;;;;;;;22.00;90.00;;;;;;4361419;32;43721;-76
2022/05/11 14:20:25;;;;;;;;;;;22.00;89.90;;;;;;4347615;32;43660;-77
2022/05/11 14:23:00;;;;;;;;;;;22.00;90.00;;;;;;4361537;32;43485;-76
2022/05/11 14:25:36;;;;;;;;;;;22.00;89.50;;;;;;4361544;32;44135;-76
2022/05/11 14:28:23;;;;;;;;;;;22.10;90.10;;;;;;4361043;32;42594;-76
2022/05/11 14:30:50;;;;;;;;;;;22.10;90.10;;;;;;4361086;32;42683;-77
2022/05/11 14:33:26;;;;;;;;;;;22.20;90.10;;;;;;4347676;32;43796;-77
2022/05/11 14:35:54;;;;;;;;;;;22.20;89.60;;;;;;4362106;32;20001;-76
2022/05/11 14:38:25;;;;;;;;;;;22.10;89.30;;;;;;4347985;32;43980;-77
2022/05/11 14:41:03;;;;;;;;;;;22.20;89.30;;;;;;4360977;32;45145;-77
2022/05/11 14:43:30;;;;;;;;;;;22.20;90.00;;;;;;4347797;32;43316;-78
2022/05/11 14:46:05;;;;;;;;;;;22.20;89.00;;;;;;4360785;32;44403;-77
2022/05/11 14:48:40;;;;;;;;;;;22.20;88.80;;;;;;4347629;32;43724;-77
2022/05/11 14:51:09;;;;;;;;;;;22.20;89.30;;;;;;4360924;32;43745;-77
2022/05/11 14:53:36;;;;;;;;;;;22.30;88.40;;;;;;4361238;32;43936;-78
2022/05/11 14:56:09;;;;;;;;;;;22.30;88.50;;;;;;4361012;32;44350;-77
2022/05/11 15:04:22;;;;;;;;;;;22.40;88.90;;;;;;4360450;32;43465;-77
2022/05/11 15:06:52;;;;;;;;;;;22.40;89.40;;;;;;4348572;32;20019;-77
2022/05/11 15:09:26;;;;;;;;;;;22.40;88.50;;;;;;4360577;32;42667;-77
2022/05/11 15:14:54;;;;;;;;;;;22.40;89.80;;;;;;4360780;32;44067;-77
2022/05/11 15:17:30;;;;;;;;;;;22.40;88.50;;;;;;4360224;32;42913;-77
2022/05/11 15:20:18;;;;;;;;;;;22.30;88.80;;;;;;4360367;32;43711;-76
2022/05/11 15:22:48;;;;;;;;;;;22.30;89.30;;;;;;4346678;32;42526;-77
2022/05/11 15:25:16;;;;;;;;;;;22.40;89.60;;;;;;4360448;32;44119;-77
2022/05/11 15:27:44;;;;;;;;;;;22.40;89.70;;;;;;4360500;32;43967;-76
2022/05/11 15:30:12;;;;;;;;;;;22.40;90.00;;;;;;4359955;32;43121;-76
2022/05/11 15:32:40;;;;;;;;;;;22.40;89.10;;;;;;4347032;32;45074;-77
2022/05/11 15:35:15;;;;;;;;;;;22.40;89.50;;;;;;4347014;32;43691;-77
2022/05/11 15:37:51;;;;;;;;;;;22.40;89.40;;;;;;4360804;32;19989;-77
2022/05/11 15:40:27;;;;;;;;;;;22.40;89.30;;;;;;4360547;32;43538;-76
2022/05/11 15:43:11;;;;;;;;;;;22.50;89.10;;;;;;4360320;32;43308;-77
2022/05/11 15:46:07;;;;;;;;;;;22.50;88.40;;;;;;4360241;32;43157;-77
2022/05/11 15:48:44;;;;;;;;;;;22.50;88.70;;;;;;4346598;32;43542;-77
2022/05/11 15:51:23;;;;;;;;;;;22.50;89.00;;;;;;4346679;32;44803;-76
2022/05/11 15:53:50;;;;;;;;;;;22.50;88.90;;;;;;4360271;32;43734;-77